Cherry Point MCAS /Cunningham Field/
KNKT : rendu visible

Aérodrome :











RETROUVEZ-NOUS SUR...

 
LOGIN :

S'inscrire | Disclaimer

   EN    FR    IT 

 









Légende :    VFR   VFR Marginal   IFR   IFR Intensif   IFR Très Intensif
Visi : 
Plafond : 
>= 8 km
>= 3000ft
5 à 8 km
1000 à 3000 ft
1500m à 5 km
500 à 1000 ft
800 à 1500m
200 à 500 ft
< 800m
< 200 ft
Symboles :   Orages  Brouillard  Fortes neiges  Fortes précipitations  Vent > 20 kt






- Altitude de l'aérodrome : 29 ft


KNKT - Cherry Point MCAS /Cunningham Field/

DERNIER METAR :
  • 171154Z 01019G26KT 4SM BR OVC006 11/09 A2990 RMK AO2 PK WND 02029/1103 SLP122 60001 70048 T01060089 10128 20106 53004

METARs EXPIRÉS :
  • 171104Z 01020G29KT 4SM BR OVC008 12/09 A2990 RMK AO2 PK WND 02029/1103 CIG 006V012 T01170094
  • 170954Z 02022G33KT 9SM OVC011 13/09 A2988 RMK AO2 PK WND 01035/0928 SLP115 T01280094

TAF COR TAF KNKT
Valide du 17 à 09h jusqu'au 18 à 09h UTC


1709/1809 02020G35KT 9999 OVC010 QNH2980INS
TEMPO 1709/1715 4800 -SHRA BR
FM172000 01020G30KT 9999 OVC010 QNH2975INS
BECMG 1805/1807 34010KT 9999 BKN015 OVC030 QNH2980INS T12/1718Z T09/1809Z COR 1115



MET'MAP, la Météo Aéronautique d'un coup d'oeil ! - Copyright ORBIFLY Décembre 2007 - Disclaimer

ORBIFLY MET'MAP TEAM :

Programmation & Développement : Alexandra Zaïnal
Conception & Développement : Baudouin d'Aumeries
Co-Programmation & Développement : Marc-Olivier Méhu
Soutien technique & logistique : Manuel Goepfert

Contact : metmap@orbifly.com




SOURCES & CREDITS :

   NOAA       Earth
Advisory